sensor_id;sensor_type;location;lat;lon;timestamp;P1;durP1;ratioP1;P2;durP2;ratioP2
13475;SDS011;6810;63.824;20.288;2024-01-07T00:00:20;0.00;;;0.00;;
13475;SDS011;6810;63.824;20.288;2024-01-07T00:03:07;0.30;;;0.23;;
13475;SDS011;6810;63.824;20.288;2024-01-07T00:05:54;1.30;;;1.20;;
13475;SDS011;6810;63.824;20.288;2024-01-07T00:08:41;0.20;;;0.20;;
13475;SDS011;6810;63.824;20.288;2024-01-07T00:11:28;4.80;;;0.97;;
13475;SDS011;6810;63.824;20.288;2024-01-07T00:14:15;0.20;;;0.10;;
13475;SDS011;6810;63.824;20.288;2024-01-07T00:17:02;0.00;;;0.00;;
13475;SDS011;6810;63.824;20.288;2024-01-07T00:19:49;1.90;;;1.07;;
13475;SDS011;6810;63.824;20.288;2024-01-07T00:22:36;0.23;;;0.23;;
13475;SDS011;6810;63.824;20.288;2024-01-07T00:25:23;0.83;;;0.10;;
13475;SDS011;6810;63.824;20.288;2024-01-07T00:28:10;1.47;;;0.47;;
13475;SDS011;6810;63.824;20.288;2024-01-07T00:30:57;0.13;;;0.13;;
13475;SDS011;6810;63.824;20.288;2024-01-07T00:33:44;1.43;;;0.70;;
13475;SDS011;6810;63.824;20.288;2024-01-07T00:36:32;1.27;;;0.37;;
13475;SDS011;6810;63.824;20.288;2024-01-07T00:39:19;0.00;;;0.00;;
13475;SDS011;6810;63.824;20.288;2024-01-07T00:42:06;0.30;;;0.23;;
13475;SDS011;6810;63.824;20.288;2024-01-07T00:44:53;1.33;;;0.13;;
13475;SDS011;6810;63.824;20.288;2024-01-07T00:47:40;0.70;;;0.30;;
13475;SDS011;6810;63.824;20.288;2024-01-07T00:50:27;0.00;;;0.00;;
13475;SDS011;6810;63.824;20.288;2024-01-07T00:53:14;0.90;;;0.70;;
13475;SDS011;6810;63.824;20.288;2024-01-07T00:56:01;0.67;;;0.40;;
13475;SDS011;6810;63.824;20.288;2024-01-07T00:58:48;0.00;;;0.00;;
13475;SDS011;6810;63.824;20.288;2024-01-07T01:01:35;0.10;;;0.10;;
13475;SDS011;6810;63.824;20.288;2024-01-07T01:04:22;1.13;;;0.37;;
13475;SDS011;6810;63.824;20.288;2024-01-07T01:07:09;0.47;;;0.23;;
13475;SDS011;6810;63.824;20.288;2024-01-07T01:09:56;0.10;;;0.03;;
13475;SDS011;6810;63.824;20.288;2024-01-07T01:12:44;0.13;;;0.13;;
13475;SDS011;6810;63.824;20.288;2024-01-07T01:15:31;0.20;;;0.20;;
13475;SDS011;6810;63.824;20.288;2024-01-07T01:18:18;0.00;;;0.00;;
13475;SDS011;6810;63.824;20.288;2024-01-07T01:21:05;0.47;;;0.23;;
13475;SDS011;6810;63.824;20.288;2024-01-07T01:23:52;0.20;;;0.10;;
13475;SDS011;6810;63.824;20.288;2024-01-07T01:26:39;0.10;;;0.10;;
13475;SDS011;6810;63.824;20.288;2024-01-07T01:29:26;0.00;;;0.00;;
13475;SDS011;6810;63.824;20.288;2024-01-07T01:32:13;0.20;;;0.10;;
13475;SDS011;6810;63.824;20.288;2024-01-07T01:35:00;0.77;;;0.47;;
13475;SDS011;6810;63.824;20.288;2024-01-07T01:37:47;0.00;;;0.00;;
13475;SDS011;6810;63.824;20.288;2024-01-07T01:40:34;0.00;;;0.00;;
13475;SDS011;6810;63.824;20.288;2024-01-07T01:43:27;0.53;;;0.53;;
13475;SDS011;6810;63.824;20.288;2024-01-07T01:46:15;1.10;;;0.77;;
13475;SDS011;6810;63.824;20.288;2024-01-07T01:49:02;0.30;;;0.30;;
13475;SDS011;6810;63.824;20.288;2024-01-07T01:51:49;0.10;;;0.10;;
13475;SDS011;6810;63.824;20.288;2024-01-07T01:54:37;0.30;;;0.10;;
13475;SDS011;6810;63.824;20.288;2024-01-07T01:57:24;3.30;;;0.43;;
13475;SDS011;6810;63.824;20.288;2024-01-07T02:00:19;0.83;;;0.60;;
13475;SDS011;6810;63.824;20.288;2024-01-07T02:03:06;0.53;;;0.30;;
13475;SDS011;6810;63.824;20.288;2024-01-07T02:05:53;0.10;;;0.10;;
13475;SDS011;6810;63.824;20.288;2024-01-07T02:08:41;0.73;;;0.63;;
13475;SDS011;6810;63.824;20.288;2024-01-07T02:11:28;0.63;;;0.40;;
13475;SDS011;6810;63.824;20.288;2024-01-07T02:14:15;2.03;;;0.47;;
13475;SDS011;6810;63.824;20.288;2024-01-07T02:17:02;2.00;;;0.40;;
13475;SDS011;6810;63.824;20.288;2024-01-07T02:19:49;0.93;;;0.67;;
13475;SDS011;6810;63.824;20.288;2024-01-07T02:22:36;2.47;;;0.80;;
13475;SDS011;6810;63.824;20.288;2024-01-07T02:25:23;0.10;;;0.10;;
13475;SDS011;6810;63.824;20.288;2024-01-07T02:28:10;0.40;;;0.40;;
13475;SDS011;6810;63.824;20.288;2024-01-07T02:30:57;1.90;;;0.67;;
13475;SDS011;6810;63.824;20.288;2024-01-07T02:33:44;5.50;;;0.50;;
13475;SDS011;6810;63.824;20.288;2024-01-07T02:36:32;1.03;;;0.57;;
13475;SDS011;6810;63.824;20.288;2024-01-07T02:39:19;0.23;;;0.23;;
13475;SDS011;6810;63.824;20.288;2024-01-07T02:42:06;0.73;;;0.73;;
13475;SDS011;6810;63.824;20.288;2024-01-07T02:44:53;0.63;;;0.47;;
13475;SDS011;6810;63.824;20.288;2024-01-07T02:47:39;0.00;;;0.00;;
13475;SDS011;6810;63.824;20.288;2024-01-07T02:50:30;2.00;;;0.50;;
13475;SDS011;6810;63.824;20.288;2024-01-07T02:53:17;0.87;;;0.60;;
13475;SDS011;6810;63.824;20.288;2024-01-07T02:56:04;0.20;;;0.17;;
13475;SDS011;6810;63.824;20.288;2024-01-07T02:58:51;0.50;;;0.50;;
13475;SDS011;6810;63.824;20.288;2024-01-07T03:01:38;0.43;;;0.30;;
13475;SDS011;6810;63.824;20.288;2024-01-07T03:04:28;0.20;;;0.20;;
13475;SDS011;6810;63.824;20.288;2024-01-07T03:07:15;2.23;;;1.30;;
13475;SDS011;6810;63.824;20.288;2024-01-07T03:10:02;0.73;;;0.73;;
13475;SDS011;6810;63.824;20.288;2024-01-07T03:12:49;0.10;;;0.10;;
13475;SDS011;6810;63.824;20.288;2024-01-07T03:15:36;0.53;;;0.53;;
13475;SDS011;6810;63.824;20.288;2024-01-07T03:18:23;1.30;;;0.77;;
13475;SDS011;6810;63.824;20.288;2024-01-07T03:21:16;0.83;;;0.63;;
13475;SDS011;6810;63.824;20.288;2024-01-07T03:24:06;0.10;;;0.10;;
13475;SDS011;6810;63.824;20.288;2024-01-07T03:26:53;4.03;;;1.20;;
13475;SDS011;6810;63.824;20.288;2024-01-07T03:29:40;0.60;;;0.60;;
13475;SDS011;6810;63.824;20.288;2024-01-07T03:32:27;3.17;;;1.13;;
13475;SDS011;6810;63.824;20.288;2024-01-07T03:35:18;0.30;;;0.17;;
13475;SDS011;6810;63.824;20.288;2024-01-07T03:38:05;0.77;;;0.33;;
13475;SDS011;6810;63.824;20.288;2024-01-07T03:40:52;0.57;;;0.57;;
13475;SDS011;6810;63.824;20.288;2024-01-07T03:43:39;0.60;;;0.60;;
13475;SDS011;6810;63.824;20.288;2024-01-07T03:46:26;0.43;;;0.43;;
13475;SDS011;6810;63.824;20.288;2024-01-07T03:49:12;2.43;;;0.37;;
13475;SDS011;6810;63.824;20.288;2024-01-07T03:51:59;0.13;;;0.13;;
13475;SDS011;6810;63.824;20.288;2024-01-07T03:54:46;0.30;;;0.30;;
13475;SDS011;6810;63.824;20.288;2024-01-07T03:57:33;0.40;;;0.40;;
13475;SDS011;6810;63.824;20.288;2024-01-07T04:00:20;0.10;;;0.10;;
13475;SDS011;6810;63.824;20.288;2024-01-07T04:03:07;0.13;;;0.13;;
13475;SDS011;6810;63.824;20.288;2024-01-07T04:05:54;0.20;;;0.20;;
13475;SDS011;6810;63.824;20.288;2024-01-07T04:08:42;0.23;;;0.23;;
13475;SDS011;6810;63.824;20.288;2024-01-07T04:11:29;0.07;;;0.07;;
13475;SDS011;6810;63.824;20.288;2024-01-07T04:14:15;0.20;;;0.20;;
13475;SDS011;6810;63.824;20.288;2024-01-07T04:17:02;0.17;;;0.17;;
13475;SDS011;6810;63.824;20.288;2024-01-07T04:19:49;0.53;;;0.53;;
13475;SDS011;6810;63.824;20.288;2024-01-07T04:22:36;0.10;;;0.10;;
13475;SDS011;6810;63.824;20.288;2024-01-07T04:25:23;1.13;;;0.30;;
13475;SDS011;6810;63.824;20.288;2024-01-07T04:28:11;0.30;;;0.30;;
13475;SDS011;6810;63.824;20.288;2024-01-07T04:30:57;1.27;;;0.60;;
13475;SDS011;6810;63.824;20.288;2024-01-07T04:33:45;5.20;;;0.50;;
13475;SDS011;6810;63.824;20.288;2024-01-07T04:36:31;1.10;;;0.77;;
13475;SDS011;6810;63.824;20.288;2024-01-07T04:39:18;0.57;;;0.30;;
13475;SDS011;6810;63.824;20.288;2024-01-07T04:42:05;0.07;;;0.07;;
13475;SDS011;6810;63.824;20.288;2024-01-07T04:44:53;0.40;;;0.40;;
13475;SDS011;6810;63.824;20.288;2024-01-07T04:47:39;0.10;;;0.10;;
13475;SDS011;6810;63.824;20.288;2024-01-07T04:50:26;0.60;;;0.60;;
13475;SDS011;6810;63.824;20.288;2024-01-07T04:53:13;0.57;;;0.57;;
13475;SDS011;6810;63.824;20.288;2024-01-07T04:56:00;0.20;;;0.20;;
13475;SDS011;6810;63.824;20.288;2024-01-07T04:58:47;0.10;;;0.10;;
13475;SDS011;6810;63.824;20.288;2024-01-07T05:01:34;0.20;;;0.20;;
13475;SDS011;6810;63.824;20.288;2024-01-07T05:04:21;0.10;;;0.10;;
13475;SDS011;6810;63.824;20.288;2024-01-07T05:07:08;1.87;;;0.63;;
13475;SDS011;6810;63.824;20.288;2024-01-07T05:09:55;0.30;;;0.30;;
13475;SDS011;6810;63.824;20.288;2024-01-07T05:12:42;3.07;;;1.20;;
13475;SDS011;6810;63.824;20.288;2024-01-07T05:15:29;0.37;;;0.27;;
13475;SDS011;6810;63.824;20.288;2024-01-07T05:18:16;0.57;;;0.57;;
13475;SDS011;6810;63.824;20.288;2024-01-07T05:21:05;1.57;;;0.97;;
13475;SDS011;6810;63.824;20.288;2024-01-07T05:23:52;3.23;;;0.50;;
13475;SDS011;6810;63.824;20.288;2024-01-07T05:26:43;0.17;;;0.10;;
13475;SDS011;6810;63.824;20.288;2024-01-07T05:29:31;0.27;;;0.27;;
13475;SDS011;6810;63.824;20.288;2024-01-07T05:32:18;0.80;;;0.80;;
13475;SDS011;6810;63.824;20.288;2024-01-07T05:35:05;1.33;;;0.63;;
13475;SDS011;6810;63.824;20.288;2024-01-07T05:37:53;0.00;;;0.00;;
13475;SDS011;6810;63.824;20.288;2024-01-07T05:40:39;0.13;;;0.13;;
13475;SDS011;6810;63.824;20.288;2024-01-07T05:43:26;0.30;;;0.30;;
13475;SDS011;6810;63.824;20.288;2024-01-07T05:46:13;0.67;;;0.67;;
13475;SDS011;6810;63.824;20.288;2024-01-07T05:49:00;0.20;;;0.20;;
13475;SDS011;6810;63.824;20.288;2024-01-07T05:51:47;0.27;;;0.27;;
13475;SDS011;6810;63.824;20.288;2024-01-07T05:54:34;0.57;;;0.37;;
13475;SDS011;6810;63.824;20.288;2024-01-07T05:57:21;0.60;;;0.33;;
13475;SDS011;6810;63.824;20.288;2024-01-07T06:00:08;0.30;;;0.17;;
13475;SDS011;6810;63.824;20.288;2024-01-07T06:02:56;1.40;;;0.40;;
13475;SDS011;6810;63.824;20.288;2024-01-07T06:05:43;0.27;;;0.27;;
13475;SDS011;6810;63.824;20.288;2024-01-07T06:08:30;0.00;;;0.00;;
13475;SDS011;6810;63.824;20.288;2024-01-07T06:11:17;0.10;;;0.10;;
13475;SDS011;6810;63.824;20.288;2024-01-07T06:14:04;0.13;;;0.13;;
13475;SDS011;6810;63.824;20.288;2024-01-07T06:16:51;0.30;;;0.30;;
13475;SDS011;6810;63.824;20.288;2024-01-07T06:19:38;2.50;;;0.70;;
13475;SDS011;6810;63.824;20.288;2024-01-07T06:22:25;4.03;;;1.40;;
13475;SDS011;6810;63.824;20.288;2024-01-07T06:25:12;0.37;;;0.37;;
13475;SDS011;6810;63.824;20.288;2024-01-07T06:27:59;0.20;;;0.20;;
13475;SDS011;6810;63.824;20.288;2024-01-07T06:30:45;0.73;;;0.10;;
13475;SDS011;6810;63.824;20.288;2024-01-07T06:33:33;0.10;;;0.10;;
13475;SDS011;6810;63.824;20.288;2024-01-07T06:36:20;0.87;;;0.30;;
13475;SDS011;6810;63.824;20.288;2024-01-07T06:39:07;0.40;;;0.07;;
13475;SDS011;6810;63.824;20.288;2024-01-07T06:41:54;0.10;;;0.10;;
13475;SDS011;6810;63.824;20.288;2024-01-07T06:44:41;0.53;;;0.40;;
13475;SDS011;6810;63.824;20.288;2024-01-07T06:47:28;1.43;;;0.67;;
13475;SDS011;6810;63.824;20.288;2024-01-07T06:50:15;3.90;;;0.60;;
13475;SDS011;6810;63.824;20.288;2024-01-07T06:53:01;1.60;;;0.40;;
13475;SDS011;6810;63.824;20.288;2024-01-07T06:55:48;0.50;;;0.50;;
13475;SDS011;6810;63.824;20.288;2024-01-07T06:58:36;0.37;;;0.37;;
13475;SDS011;6810;63.824;20.288;2024-01-07T07:01:22;1.37;;;0.37;;
13475;SDS011;6810;63.824;20.288;2024-01-07T07:04:10;1.23;;;0.93;;
13475;SDS011;6810;63.824;20.288;2024-01-07T07:06:57;2.27;;;1.27;;
13475;SDS011;6810;63.824;20.288;2024-01-07T07:09:44;0.27;;;0.27;;
13475;SDS011;6810;63.824;20.288;2024-01-07T07:12:30;3.67;;;1.03;;
13475;SDS011;6810;63.824;20.288;2024-01-07T07:15:17;1.83;;;1.73;;
13475;SDS011;6810;63.824;20.288;2024-01-07T07:18:05;0.63;;;0.63;;
13475;SDS011;6810;63.824;20.288;2024-01-07T07:20:52;0.67;;;0.67;;
13475;SDS011;6810;63.824;20.288;2024-01-07T07:23:39;0.53;;;0.53;;
13475;SDS011;6810;63.824;20.288;2024-01-07T07:26:26;0.60;;;0.40;;
13475;SDS011;6810;63.824;20.288;2024-01-07T07:29:13;0.77;;;0.33;;
13475;SDS011;6810;63.824;20.288;2024-01-07T07:32:00;0.90;;;0.90;;
13475;SDS011;6810;63.824;20.288;2024-01-07T07:34:47;1.70;;;0.77;;
13475;SDS011;6810;63.824;20.288;2024-01-07T07:37:34;1.30;;;1.10;;
13475;SDS011;6810;63.824;20.288;2024-01-07T07:40:20;1.10;;;1.10;;
13475;SDS011;6810;63.824;20.288;2024-01-07T07:43:08;0.30;;;0.30;;
13475;SDS011;6810;63.824;20.288;2024-01-07T07:45:55;0.83;;;0.83;;
13475;SDS011;6810;63.824;20.288;2024-01-07T07:48:42;1.03;;;0.60;;
13475;SDS011;6810;63.824;20.288;2024-01-07T07:51:29;0.10;;;0.00;;
13475;SDS011;6810;63.824;20.288;2024-01-07T07:54:16;0.40;;;0.40;;
13475;SDS011;6810;63.824;20.288;2024-01-07T07:57:03;0.13;;;0.13;;
13475;SDS011;6810;63.824;20.288;2024-01-07T07:59:51;3.20;;;0.60;;
13475;SDS011;6810;63.824;20.288;2024-01-07T08:02:38;1.53;;;0.37;;
13475;SDS011;6810;63.824;20.288;2024-01-07T08:05:09;1.33;;;0.43;;
13475;SDS011;6810;63.824;20.288;2024-01-07T08:07:36;1.70;;;0.77;;
13475;SDS011;6810;63.824;20.288;2024-01-07T08:10:03;0.30;;;0.30;;
13475;SDS011;6810;63.824;20.288;2024-01-07T08:12:30;0.73;;;0.67;;
13475;SDS011;6810;63.824;20.288;2024-01-07T08:14:57;0.40;;;0.40;;
13475;SDS011;6810;63.824;20.288;2024-01-07T08:17:24;2.53;;;1.27;;
13475;SDS011;6810;63.824;20.288;2024-01-07T08:19:55;0.50;;;0.50;;
13475;SDS011;6810;63.824;20.288;2024-01-07T08:22:22;2.93;;;1.00;;
13475;SDS011;6810;63.824;20.288;2024-01-07T08:24:49;2.00;;;0.87;;
13475;SDS011;6810;63.824;20.288;2024-01-07T08:27:17;1.43;;;1.33;;
13475;SDS011;6810;63.824;20.288;2024-01-07T08:29:44;0.57;;;0.57;;
13475;SDS011;6810;63.824;20.288;2024-01-07T08:32:11;0.33;;;0.33;;
13475;SDS011;6810;63.824;20.288;2024-01-07T08:34:39;0.30;;;0.30;;
13475;SDS011;6810;63.824;20.288;2024-01-07T08:37:09;3.00;;;0.67;;
13475;SDS011;6810;63.824;20.288;2024-01-07T08:39:37;0.20;;;0.20;;
13475;SDS011;6810;63.824;20.288;2024-01-07T08:42:04;1.60;;;0.40;;
13475;SDS011;6810;63.824;20.288;2024-01-07T08:44:31;1.73;;;0.60;;
13475;SDS011;6810;63.824;20.288;2024-01-07T08:46:58;0.57;;;0.57;;
13475;SDS011;6810;63.824;20.288;2024-01-07T08:49:28;1.83;;;0.43;;
13475;SDS011;6810;63.824;20.288;2024-01-07T08:51:56;0.93;;;0.80;;
13475;SDS011;6810;63.824;20.288;2024-01-07T08:54:23;2.73;;;0.70;;
13475;SDS011;6810;63.824;20.288;2024-01-07T08:56:50;0.80;;;0.80;;
13475;SDS011;6810;63.824;20.288;2024-01-07T08:59:17;2.80;;;0.77;;
13475;SDS011;6810;63.824;20.288;2024-01-07T09:01:44;1.73;;;1.07;;
13475;SDS011;6810;63.824;20.288;2024-01-07T09:04:11;0.20;;;0.20;;
13475;SDS011;6810;63.824;20.288;2024-01-07T09:06:38;1.30;;;0.93;;
13475;SDS011;6810;63.824;20.288;2024-01-07T09:09:05;0.30;;;0.30;;
13475;SDS011;6810;63.824;20.288;2024-01-07T09:11:35;1.07;;;0.33;;
13475;SDS011;6810;63.824;20.288;2024-01-07T09:14:03;1.33;;;0.87;;
13475;SDS011;6810;63.824;20.288;2024-01-07T09:16:30;1.67;;;0.77;;
13475;SDS011;6810;63.824;20.288;2024-01-07T09:18:57;0.97;;;0.97;;
13475;SDS011;6810;63.824;20.288;2024-01-07T09:21:24;0.97;;;0.77;;
13475;SDS011;6810;63.824;20.288;2024-01-07T09:23:52;0.00;;;0.00;;
13475;SDS011;6810;63.824;20.288;2024-01-07T09:26:19;0.97;;;0.80;;
13475;SDS011;6810;63.824;20.288;2024-01-07T09:28:46;0.67;;;0.67;;
13475;SDS011;6810;63.824;20.288;2024-01-07T09:31:13;6.63;;;1.03;;
13475;SDS011;6810;63.824;20.288;2024-01-07T09:33:42;0.43;;;0.43;;
13475;SDS011;6810;63.824;20.288;2024-01-07T09:36:09;1.70;;;1.20;;
13475;SDS011;6810;63.824;20.288;2024-01-07T09:38:54;0.17;;;0.17;;
13475;SDS011;6810;63.824;20.288;2024-01-07T09:41:21;1.03;;;0.20;;
13475;SDS011;6810;63.824;20.288;2024-01-07T09:43:49;0.50;;;0.50;;
13475;SDS011;6810;63.824;20.288;2024-01-07T09:46:18;1.10;;;0.87;;
13475;SDS011;6810;63.824;20.288;2024-01-07T09:48:46;1.80;;;1.40;;
13475;SDS011;6810;63.824;20.288;2024-01-07T09:51:13;2.13;;;0.73;;
13475;SDS011;6810;63.824;20.288;2024-01-07T09:53:41;0.10;;;0.10;;
13475;SDS011;6810;63.824;20.288;2024-01-07T09:58:44;0.40;;;0.40;;
13475;SDS011;6810;63.824;20.288;2024-01-07T10:01:15;2.40;;;1.73;;
13475;SDS011;6810;63.824;20.288;2024-01-07T10:03:43;1.70;;;1.40;;
13475;SDS011;6810;63.824;20.288;2024-01-07T10:06:11;0.87;;;0.67;;
13475;SDS011;6810;63.824;20.288;2024-01-07T10:08:38;4.67;;;1.30;;
13475;SDS011;6810;63.824;20.288;2024-01-07T10:11:06;0.80;;;0.80;;
13475;SDS011;6810;63.824;20.288;2024-01-07T10:13:36;2.53;;;2.07;;
13475;SDS011;6810;63.824;20.288;2024-01-07T10:16:03;3.90;;;2.33;;
13475;SDS011;6810;63.824;20.288;2024-01-07T10:18:30;0.93;;;0.93;;
13475;SDS011;6810;63.824;20.288;2024-01-07T10:21:03;9.40;;;2.97;;
13475;SDS011;6810;63.824;20.288;2024-01-07T10:23:30;0.83;;;0.83;;
13475;SDS011;6810;63.824;20.288;2024-01-07T10:25:57;3.60;;;1.90;;
13475;SDS011;6810;63.824;20.288;2024-01-07T10:28:31;0.60;;;0.60;;
13475;SDS011;6810;63.824;20.288;2024-01-07T10:30:59;0.70;;;0.70;;
13475;SDS011;6810;63.824;20.288;2024-01-07T10:33:30;4.60;;;1.63;;
13475;SDS011;6810;63.824;20.288;2024-01-07T10:36:02;0.50;;;0.50;;
13475;SDS011;6810;63.824;20.288;2024-01-07T10:38:32;2.70;;;1.60;;
13475;SDS011;6810;63.824;20.288;2024-01-07T10:41:00;2.47;;;1.23;;
13475;SDS011;6810;63.824;20.288;2024-01-07T10:43:29;0.57;;;0.57;;
13475;SDS011;6810;63.824;20.288;2024-01-07T10:45:56;2.13;;;1.67;;
13475;SDS011;6810;63.824;20.288;2024-01-07T10:48:30;1.50;;;1.17;;
13475;SDS011;6810;63.824;20.288;2024-01-07T10:51:01;0.70;;;0.43;;
13475;SDS011;6810;63.824;20.288;2024-01-07T10:53:33;0.57;;;0.57;;
13475;SDS011;6810;63.824;20.288;2024-01-07T10:56:04;1.90;;;1.37;;
13475;SDS011;6810;63.824;20.288;2024-01-07T10:58:35;3.43;;;1.17;;
13475;SDS011;6810;63.824;20.288;2024-01-07T11:01:03;3.40;;;2.30;;
13475;SDS011;6810;63.824;20.288;2024-01-07T11:11:56;1.03;;;1.00;;
13475;SDS011;6810;63.824;20.288;2024-01-07T11:14:35;0.67;;;0.67;;
13475;SDS011;6810;63.824;20.288;2024-01-07T11:20:04;0.50;;;0.50;;
13475;SDS011;6810;63.824;20.288;2024-01-07T11:22:32;3.13;;;1.50;;
13475;SDS011;6810;63.824;20.288;2024-01-07T11:25:00;3.37;;;0.93;;
13475;SDS011;6810;63.824;20.288;2024-01-07T11:27:28;2.87;;;1.37;;
13475;SDS011;6810;63.824;20.288;2024-01-07T11:30:01;1.13;;;0.77;;
13475;SDS011;6810;63.824;20.288;2024-01-07T11:32:33;2.63;;;0.90;;
13475;SDS011;6810;63.824;20.288;2024-01-07T11:35:01;1.43;;;0.90;;
13475;SDS011;6810;63.824;20.288;2024-01-07T11:37:30;0.60;;;0.60;;
13475;SDS011;6810;63.824;20.288;2024-01-07T11:39:57;1.87;;;1.77;;
13475;SDS011;6810;63.824;20.288;2024-01-07T11:42:25;2.30;;;1.73;;
13475;SDS011;6810;63.824;20.288;2024-01-07T11:44:53;2.20;;;1.07;;
13475;SDS011;6810;63.824;20.288;2024-01-07T11:47:21;0.50;;;0.43;;
13475;SDS011;6810;63.824;20.288;2024-01-07T11:49:50;2.03;;;0.80;;
13475;SDS011;6810;63.824;20.288;2024-01-07T11:52:17;1.20;;;1.17;;
13475;SDS011;6810;63.824;20.288;2024-01-07T11:54:45;0.33;;;0.33;;
13475;SDS011;6810;63.824;20.288;2024-01-07T11:57:14;2.00;;;0.97;;
13475;SDS011;6810;63.824;20.288;2024-01-07T11:59:41;1.50;;;1.40;;
13475;SDS011;6810;63.824;20.288;2024-01-07T12:02:11;1.60;;;1.23;;
13475;SDS011;6810;63.824;20.288;2024-01-07T12:04:38;1.07;;;0.97;;
13475;SDS011;6810;63.824;20.288;2024-01-07T12:07:05;1.50;;;1.27;;
13475;SDS011;6810;63.824;20.288;2024-01-07T12:09:32;2.33;;;1.33;;
13475;SDS011;6810;63.824;20.288;2024-01-07T12:12:00;2.20;;;1.33;;
13475;SDS011;6810;63.824;20.288;2024-01-07T12:14:27;2.50;;;1.23;;
13475;SDS011;6810;63.824;20.288;2024-01-07T12:16:55;2.13;;;1.37;;
13475;SDS011;6810;63.824;20.288;2024-01-07T12:19:22;2.97;;;1.07;;
13475;SDS011;6810;63.824;20.288;2024-01-07T12:22:12;1.43;;;0.90;;
13475;SDS011;6810;63.824;20.288;2024-01-07T12:24:38;0.67;;;0.67;;
13475;SDS011;6810;63.824;20.288;2024-01-07T12:27:25;1.60;;;1.33;;
13475;SDS011;6810;63.824;20.288;2024-01-07T12:30:14;1.90;;;1.53;;
13475;SDS011;6810;63.824;20.288;2024-01-07T12:33:03;0.97;;;0.97;;
13475;SDS011;6810;63.824;20.288;2024-01-07T12:35:51;9.00;;;1.83;;
13475;SDS011;6810;63.824;20.288;2024-01-07T12:38:38;2.50;;;2.30;;
13475;SDS011;6810;63.824;20.288;2024-01-07T12:41:25;1.90;;;1.63;;
13475;SDS011;6810;63.824;20.288;2024-01-07T12:44:12;1.40;;;1.20;;
13475;SDS011;6810;63.824;20.288;2024-01-07T12:46:59;12.00;;;2.23;;
13475;SDS011;6810;63.824;20.288;2024-01-07T12:49:46;1.77;;;1.53;;
13475;SDS011;6810;63.824;20.288;2024-01-07T12:52:33;1.73;;;1.43;;
13475;SDS011;6810;63.824;20.288;2024-01-07T12:55:20;1.33;;;1.27;;
13475;SDS011;6810;63.824;20.288;2024-01-07T12:58:07;3.43;;;2.13;;
13475;SDS011;6810;63.824;20.288;2024-01-07T13:00:54;4.37;;;1.60;;
13475;SDS011;6810;63.824;20.288;2024-01-07T13:03:41;3.17;;;1.27;;
13475;SDS011;6810;63.824;20.288;2024-01-07T13:06:28;1.63;;;1.03;;
13475;SDS011;6810;63.824;20.288;2024-01-07T13:09:15;1.63;;;0.87;;
13475;SDS011;6810;63.824;20.288;2024-01-07T13:12:02;0.47;;;0.43;;
13475;SDS011;6810;63.824;20.288;2024-01-07T13:15:02;2.47;;;1.93;;
13475;SDS011;6810;63.824;20.288;2024-01-07T13:17:50;1.00;;;1.00;;
13475;SDS011;6810;63.824;20.288;2024-01-07T13:20:37;2.10;;;1.80;;
13475;SDS011;6810;63.824;20.288;2024-01-07T13:23:24;1.97;;;1.83;;
13475;SDS011;6810;63.824;20.288;2024-01-07T13:26:11;3.40;;;2.83;;
13475;SDS011;6810;63.824;20.288;2024-01-07T13:28:58;5.00;;;2.40;;
13475;SDS011;6810;63.824;20.288;2024-01-07T13:31:44;1.37;;;1.27;;
13475;SDS011;6810;63.824;20.288;2024-01-07T13:34:32;2.13;;;1.47;;
13475;SDS011;6810;63.824;20.288;2024-01-07T13:37:19;5.17;;;3.00;;
13475;SDS011;6810;63.824;20.288;2024-01-07T13:40:06;3.67;;;1.60;;
13475;SDS011;6810;63.824;20.288;2024-01-07T13:42:53;2.40;;;2.17;;
13475;SDS011;6810;63.824;20.288;2024-01-07T13:45:40;2.30;;;2.03;;
13475;SDS011;6810;63.824;20.288;2024-01-07T13:48:27;2.57;;;2.33;;
13475;SDS011;6810;63.824;20.288;2024-01-07T13:51:14;1.83;;;1.50;;
13475;SDS011;6810;63.824;20.288;2024-01-07T13:54:02;1.20;;;1.20;;
13475;SDS011;6810;63.824;20.288;2024-01-07T13:56:49;4.97;;;3.20;;
13475;SDS011;6810;63.824;20.288;2024-01-07T13:59:36;2.83;;;2.37;;
13475;SDS011;6810;63.824;20.288;2024-01-07T14:02:23;1.23;;;1.23;;
13475;SDS011;6810;63.824;20.288;2024-01-07T14:05:10;4.03;;;2.23;;
13475;SDS011;6810;63.824;20.288;2024-01-07T14:07:56;4.40;;;2.80;;
13475;SDS011;6810;63.824;20.288;2024-01-07T14:10:43;2.47;;;2.27;;
13475;SDS011;6810;63.824;20.288;2024-01-07T14:13:30;2.20;;;2.10;;
13475;SDS011;6810;63.824;20.288;2024-01-07T14:16:17;2.50;;;2.17;;
13475;SDS011;6810;63.824;20.288;2024-01-07T14:19:06;2.63;;;2.40;;
13475;SDS011;6810;63.824;20.288;2024-01-07T14:21:53;4.73;;;2.80;;
13475;SDS011;6810;63.824;20.288;2024-01-07T14:24:40;3.27;;;2.87;;
13475;SDS011;6810;63.824;20.288;2024-01-07T14:27:27;3.47;;;3.17;;
13475;SDS011;6810;63.824;20.288;2024-01-07T14:30:14;0.97;;;0.67;;
13475;SDS011;6810;63.824;20.288;2024-01-07T14:33:01;2.90;;;1.73;;
13475;SDS011;6810;63.824;20.288;2024-01-07T14:35:48;2.30;;;2.10;;
13475;SDS011;6810;63.824;20.288;2024-01-07T14:38:35;8.70;;;2.30;;
13475;SDS011;6810;63.824;20.288;2024-01-07T14:41:22;2.03;;;1.43;;
13475;SDS011;6810;63.824;20.288;2024-01-07T14:44:09;2.33;;;2.23;;
13475;SDS011;6810;63.824;20.288;2024-01-07T14:47:10;2.67;;;1.77;;
13475;SDS011;6810;63.824;20.288;2024-01-07T14:49:57;6.23;;;1.97;;
13475;SDS011;6810;63.824;20.288;2024-01-07T14:52:46;8.43;;;3.50;;
13475;SDS011;6810;63.824;20.288;2024-01-07T14:55:33;0.90;;;0.87;;
13475;SDS011;6810;63.824;20.288;2024-01-07T14:58:20;2.97;;;1.73;;
13475;SDS011;6810;63.824;20.288;2024-01-07T15:01:10;0.90;;;0.90;;
13475;SDS011;6810;63.824;20.288;2024-01-07T15:03:57;0.77;;;0.77;;
13475;SDS011;6810;63.824;20.288;2024-01-07T15:06:44;0.40;;;0.20;;
13475;SDS011;6810;63.824;20.288;2024-01-07T15:09:31;3.47;;;1.00;;
13475;SDS011;6810;63.824;20.288;2024-01-07T15:12:18;0.97;;;0.97;;
13475;SDS011;6810;63.824;20.288;2024-01-07T15:15:12;1.17;;;1.10;;
13475;SDS011;6810;63.824;20.288;2024-01-07T15:17:59;0.57;;;0.57;;
13475;SDS011;6810;63.824;20.288;2024-01-07T15:20:46;0.20;;;0.20;;
13475;SDS011;6810;63.824;20.288;2024-01-07T15:23:33;0.30;;;0.30;;
13475;SDS011;6810;63.824;20.288;2024-01-07T15:26:20;1.37;;;1.27;;
13475;SDS011;6810;63.824;20.288;2024-01-07T15:29:07;1.90;;;1.03;;
13475;SDS011;6810;63.824;20.288;2024-01-07T15:31:54;0.87;;;0.60;;
13475;SDS011;6810;63.824;20.288;2024-01-07T15:34:41;0.20;;;0.20;;
13475;SDS011;6810;63.824;20.288;2024-01-07T15:37:28;0.60;;;0.60;;
13475;SDS011;6810;63.824;20.288;2024-01-07T15:40:15;0.47;;;0.47;;
13475;SDS011;6810;63.824;20.288;2024-01-07T15:43:02;0.10;;;0.10;;
13475;SDS011;6810;63.824;20.288;2024-01-07T15:45:49;1.30;;;0.60;;
13475;SDS011;6810;63.824;20.288;2024-01-07T15:48:36;1.07;;;0.53;;
13475;SDS011;6810;63.824;20.288;2024-01-07T15:51:23;0.20;;;0.20;;
13475;SDS011;6810;63.824;20.288;2024-01-07T15:54:11;0.93;;;0.33;;
13475;SDS011;6810;63.824;20.288;2024-01-07T15:56:58;0.70;;;0.63;;
13475;SDS011;6810;63.824;20.288;2024-01-07T15:59:44;2.07;;;0.63;;
13475;SDS011;6810;63.824;20.288;2024-01-07T16:02:31;0.17;;;0.17;;
13475;SDS011;6810;63.824;20.288;2024-01-07T16:05:18;0.43;;;0.43;;
13475;SDS011;6810;63.824;20.288;2024-01-07T16:08:05;0.10;;;0.10;;
13475;SDS011;6810;63.824;20.288;2024-01-07T16:10:52;2.10;;;0.60;;
13475;SDS011;6810;63.824;20.288;2024-01-07T16:13:39;1.70;;;0.83;;
13475;SDS011;6810;63.824;20.288;2024-01-07T16:16:26;0.57;;;0.33;;
13475;SDS011;6810;63.824;20.288;2024-01-07T16:19:13;0.27;;;0.27;;
13475;SDS011;6810;63.824;20.288;2024-01-07T16:22:00;0.40;;;0.40;;
13475;SDS011;6810;63.824;20.288;2024-01-07T16:24:47;0.30;;;0.30;;
13475;SDS011;6810;63.824;20.288;2024-01-07T16:27:35;0.30;;;0.30;;
13475;SDS011;6810;63.824;20.288;2024-01-07T16:30:22;0.53;;;0.53;;